Wetterdaten: Woche 22.09.14 - 28.09.14 (KW39)
Datum Zeit Temperatur Luftfeuchte Luftdruck Niederschlag Windrichtung Sonnenschein Solar Wind
22.09.2014 00:00 11,7 C 98 % 1015,8 hPa 0,4 l/m N-NW 0,00 h 0 W/m 4,9 km/h (1 Bft)
22.09.2014 01:00 11,4 C 98 % 1016,2 hPa 0,8 l/m N-NW 0,00 h 0 W/m 8,3 km/h (2 Bft)
22.09.2014 02:00 11,1 C 98 % 1016,3 hPa 0,0 l/m N 0,00 h 0 W/m 4,5 km/h (1 Bft)
22.09.2014 03:00 10,8 C 98 % 1016,4 hPa 0,0 l/m N-NW 0,00 h 0 W/m 5,3 km/h (1 Bft)
22.09.2014 04:00 10,4 C 98 % 1016,4 hPa 0,0 l/m N-NW 0,00 h 0 W/m 7,5 km/h (2 Bft)
22.09.2014 05:00 9,3 C 97 % 1016,5 hPa 0,0 l/m N-NW 0,00 h 0 W/m 4,8 km/h (1 Bft)
22.09.2014 06:00 8,7 C 97 % 1017,0 hPa 0,0 l/m N-NW 0,00 h 0 W/m 6,1 km/h (2 Bft)
22.09.2014 07:00 8,4 C 97 % 1017,6 hPa 0,0 l/m N-NW 0,00 h 20 W/m 2,8 km/h (1 Bft)
22.09.2014 08:00 8,8 C 98 % 1017,9 hPa 0,0 l/m N-NW 0,17 h 104 W/m 2,5 km/h (1 Bft)
22.09.2014 09:00 9,8 C 95 % 1018,1 hPa 0,0 l/m NW 0,58 h 212 W/m 9,7 km/h (2 Bft)
22.09.2014 10:00 11,2 C 86 % 1018,2 hPa 0,0 l/m W-NW 1,00 h 433 W/m 10,2 km/h (2 Bft)
22.09.2014 11:00 12,3 C 78 % 1018,0 hPa 0,0 l/m W-NW 0,42 h 343 W/m 16,2 km/h (3 Bft)
22.09.2014 12:00 12,4 C 79 % 1017,5 hPa 0,0 l/m W-NW 0,33 h 344 W/m 14,4 km/h (3 Bft)
22.09.2014 13:00 12,8 C 72 % 1016,7 hPa 0,0 l/m W-NW 0,00 h 178 W/m 16,1 km/h (3 Bft)
22.09.2014 14:00 12,3 C 74 % 1016,3 hPa 0,0 l/m W-NW 0,00 h 100 W/m 16,4 km/h (3 Bft)
22.09.2014 15:00 12,1 C 75 % 1016,3 hPa 0,0 l/m W-NW 0,00 h 90 W/m 15,4 km/h (3 Bft)
22.09.2014 16:00 11,7 C 77 % 1016,5 hPa 0,0 l/m N-NW 0,17 h 214 W/m 16,5 km/h (3 Bft)
22.09.2014 17:00 11,7 C 74 % 1016,8 hPa 0,0 l/m W-NW 0,17 h 100 W/m 16,5 km/h (3 Bft)
22.09.2014 18:00 11,4 C 74 % 1017,5 hPa 0,0 l/m W-NW 0,33 h 68 W/m 12,0 km/h (2 Bft)
22.09.2014 19:00 9,6 C 85 % 1018,6 hPa 0,4 l/m N-NO 0,00 h 9 W/m 9,7 km/h (2 Bft)
22.09.2014 20:00 7,6 C 92 % 1019,4 hPa 0,0 l/m NW 0,00 h 0 W/m 4,7 km/h (1 Bft)
22.09.2014 21:00 7,0 C 93 % 1020,0 hPa 0,0 l/m NW 0,00 h 0 W/m 2,7 km/h (1 Bft)
22.09.2014 22:00 5,8 C 95 % 1020,3 hPa 0,0 l/m N 0,00 h 0 W/m 0,3 km/h (0 Bft)
22.09.2014 23:00 4,8 C 96 % 1020,6 hPa 0,0 l/m NW 0,00 h 0 W/m 0,5 km/h (0 Bft)
23.09.2014 00:00 4,3 C 97 % 1020,4 hPa 0,2 l/m N 0,00 h 0 W/m 1,7 km/h (1 Bft)
23.09.2014 01:00 3,5 C 97 % 1020,4 hPa 0,0 l/m N 0,00 h 0 W/m 0,0 km/h (0 Bft)
23.09.2014 02:00 3,3 C 97 % 1020,6 hPa 0,0 l/m N 0,00 h 0 W/m 0,0 km/h (0 Bft)
23.09.2014 03:00 3,0 C 98 % 1020,5 hPa 0,0 l/m N 0,00 h 0 W/m 0,4 km/h (0 Bft)
23.09.2014 04:00 2,9 C 98 % 1020,4 hPa 0,0 l/m N 0,00 h 0 W/m 0,7 km/h (0 Bft)
23.09.2014 05:00 2,3 C 98 % 1020,6 hPa 0,0 l/m N 0,00 h 0 W/m 0,5 km/h (0 Bft)
23.09.2014 06:00 2,2 C 98 % 1021,0 hPa 0,0 l/m N 0,00 h 0 W/m 0,0 km/h (0 Bft)
23.09.2014 07:00 2,0 C 98 % 1021,5 hPa 0,0 l/m NW 0,00 h 18 W/m 0,9 km/h (0 Bft)
23.09.2014 08:00 3,5 C 99 % 1021,7 hPa 0,0 l/m N 0,42 h 120 W/m 0,4 km/h (0 Bft)
23.09.2014 09:00 6,4 C 97 % 1021,8 hPa 0,0 l/m N-NW 1,00 h 302 W/m 3,9 km/h (1 Bft)
23.09.2014 10:00 9,2 C 88 % 1021,8 hPa 0,0 l/m O 0,92 h 409 W/m 8,0 km/h (2 Bft)
23.09.2014 11:00 10,5 C 81 % 1021,6 hPa 0,0 l/m NO 0,67 h 552 W/m 7,5 km/h (2 Bft)
23.09.2014 12:00 12,0 C 70 % 1021,2 hPa 0,0 l/m O-SO 1,00 h 681 W/m 8,4 km/h (2 Bft)
23.09.2014 13:00 13,0 C 67 % 1020,4 hPa 0,0 l/m O 1,00 h 694 W/m 11,2 km/h (2 Bft)
23.09.2014 14:00 14,0 C 61 % 1019,2 hPa 0,0 l/m O-NO 1,00 h 664 W/m 16,6 km/h (3 Bft)
23.09.2014 15:00 15,0 C 57 % 1018,0 hPa 0,0 l/m O-NO 1,00 h 584 W/m 17,0 km/h (3 Bft)
23.09.2014 16:00 15,1 C 56 % 1017,5 hPa 0,0 l/m NO 1,00 h 461 W/m 16,6 km/h (3 Bft)
23.09.2014 17:00 14,7 C 58 % 1016,8 hPa 0,0 l/m O 1,00 h 299 W/m 15,7 km/h (3 Bft)
23.09.2014 18:00 13,4 C 63 % 1016,4 hPa 0,0 l/m O-NO 0,50 h 82 W/m 12,3 km/h (3 Bft)
23.09.2014 19:00 11,1 C 73 % 1016,8 hPa 0,0 l/m O-NO 0,00 h 7 W/m 4,8 km/h (1 Bft)
23.09.2014 20:00 9,2 C 83 % 1017,2 hPa 0,0 l/m NO 0,00 h 0 W/m 4,7 km/h (1 Bft)
23.09.2014 21:00 8,2 C 88 % 1017,3 hPa 0,0 l/m NO 0,00 h 0 W/m 5,6 km/h (1 Bft)
23.09.2014 22:00 7,4 C 91 % 1017,2 hPa 0,0 l/m NO 0,00 h 0 W/m 5,5 km/h (1 Bft)
23.09.2014 23:00 6,5 C 93 % 1017,1 hPa 0,0 l/m NO 0,00 h 0 W/m 3,7 km/h (1 Bft)
24.09.2014 00:00 6,1 C 94 % 1017,3 hPa 0,0 l/m N 0,00 h 0 W/m 6,4 km/h (2 Bft)
24.09.2014 01:00 5,5 C 94 % 1016,7 hPa 0,0 l/m N 0,00 h 0 W/m 2,9 km/h (1 Bft)
24.09.2014 02:00 5,0 C 96 % 1016,4 hPa 0,0 l/m N 0,00 h 0 W/m 2,0 km/h (1 Bft)
24.09.2014 03:00 4,5 C 96 % 1015,7 hPa 0,0 l/m N 0,00 h 0 W/m 1,5 km/h (1 Bft)
24.09.2014 04:00 4,1 C 97 % 1015,1 hPa 0,0 l/m N 0,00 h 0 W/m 0,5 km/h (0 Bft)
24.09.2014 05:00 3,8 C 97 % 1014,8 hPa 0,0 l/m N 0,00 h 0 W/m 1,2 km/h (1 Bft)
24.09.2014 06:00 3,1 C 97 % 1014,6 hPa 0,0 l/m N 0,00 h 0 W/m 0,1 km/h (0 Bft)
24.09.2014 07:00 2,3 C 97 % 1014,6 hPa 0,0 l/m N 0,00 h 15 W/m 0,3 km/h (0 Bft)
24.09.2014 08:00 2,8 C 98 % 1014,5 hPa 0,2 l/m N 0,00 h 71 W/m 0,9 km/h (0 Bft)
24.09.2014 09:00 4,8 C 99 % 1014,5 hPa 0,0 l/m N 0,42 h 203 W/m 1,7 km/h (1 Bft)
24.09.2014 10:00 7,9 C 99 % 1014,4 hPa 0,0 l/m S-SW 0,83 h 354 W/m 8,3 km/h (2 Bft)
24.09.2014 11:00 10,6 C 94 % 1013,9 hPa 0,0 l/m S-SW 1,00 h 543 W/m 11,7 km/h (2 Bft)
24.09.2014 12:00 14,0 C 84 % 1013,3 hPa 0,0 l/m S 1,00 h 616 W/m 12,0 km/h (2 Bft)
24.09.2014 13:00 16,5 C 69 % 1012,6 hPa 0,0 l/m W-SW 1,00 h 641 W/m 18,8 km/h (3 Bft)
24.09.2014 14:00 17,7 C 63 % 1012,0 hPa 0,0 l/m W-SW 0,92 h 541 W/m 23,7 km/h (4 Bft)
24.09.2014 15:00 17,7 C 63 % 1011,6 hPa 0,0 l/m W-SW 0,50 h 304 W/m 20,2 km/h (4 Bft)
24.09.2014 16:00 17,1 C 68 % 1011,3 hPa 0,0 l/m W-SW 0,08 h 196 W/m 12,6 km/h (3 Bft)
24.09.2014 17:00 16,8 C 71 % 1011,0 hPa 0,0 l/m W 0,00 h 98 W/m 8,4 km/h (2 Bft)
24.09.2014 18:00 15,6 C 77 % 1011,2 hPa 0,0 l/m W 0,00 h 23 W/m 6,3 km/h (2 Bft)
24.09.2014 19:00 14,9 C 76 % 1011,9 hPa 0,0 l/m NW 0,00 h 0 W/m 9,0 km/h (2 Bft)
24.09.2014 20:00 13,8 C 79 % 1012,4 hPa 0,0 l/m NW 0,00 h 0 W/m 4,5 km/h (1 Bft)
24.09.2014 21:00 12,8 C 85 % 1013,0 hPa 0,0 l/m NW 0,00 h 0 W/m 2,4 km/h (1 Bft)
24.09.2014 22:00 12,0 C 92 % 1013,4 hPa 0,6 l/m NW 0,00 h 0 W/m 1,1 km/h (0 Bft)
24.09.2014 23:00 11,6 C 95 % 1013,5 hPa 1,0 l/m N 0,00 h 0 W/m 1,5 km/h (1 Bft)
25.09.2014 00:00 11,2 C 96 % 1013,7 hPa 0,2 l/m NW 0,00 h 0 W/m 2,3 km/h (1 Bft)
25.09.2014 01:00 10,7 C 96 % 1014,2 hPa 0,0 l/m W-NW 0,00 h 0 W/m 7,0 km/h (2 Bft)
25.09.2014 02:00 9,8 C 96 % 1014,9 hPa 0,0 l/m W-NW 0,00 h 0 W/m 5,5 km/h (1 Bft)
25.09.2014 03:00 9,4 C 97 % 1015,5 hPa 0,0 l/m W-NW 0,00 h 0 W/m 4,8 km/h (1 Bft)
25.09.2014 04:00 9,8 C 97 % 1015,8 hPa 0,0 l/m SW 0,00 h 0 W/m 9,3 km/h (2 Bft)
25.09.2014 05:00 9,9 C 97 % 1016,1 hPa 1,0 l/m W-SW 0,00 h 0 W/m 10,1 km/h (2 Bft)
25.09.2014 06:00 9,7 C 98 % 1016,2 hPa 0,2 l/m W-SW 0,00 h 0 W/m 13,2 km/h (3 Bft)
25.09.2014 07:00 9,6 C 98 % 1016,8 hPa 0,2 l/m W-SW 0,00 h 5 W/m 12,8 km/h (3 Bft)
25.09.2014 08:00 9,8 C 98 % 1017,2 hPa 0,6 l/m W-SW 0,00 h 30 W/m 9,9 km/h (2 Bft)
25.09.2014 09:00 10,4 C 97 % 1017,5 hPa 0,0 l/m W-SW 0,00 h 74 W/m 10,4 km/h (2 Bft)
25.09.2014 10:00 10,7 C 97 % 1018,2 hPa 0,0 l/m W-SW 0,00 h 58 W/m 5,3 km/h (1 Bft)
25.09.2014 11:00 11,4 C 94 % 1018,6 hPa 0,0 l/m W 0,00 h 175 W/m 8,3 km/h (2 Bft)
25.09.2014 12:00 12,5 C 88 % 1018,9 hPa 0,0 l/m W 0,17 h 264 W/m 8,1 km/h (2 Bft)
25.09.2014 13:00 12,8 C 86 % 1019,4 hPa 0,0 l/m W 0,08 h 238 W/m 6,0 km/h (2 Bft)
25.09.2014 14:00 13,6 C 80 % 1019,5 hPa 0,0 l/m W 0,33 h 330 W/m 8,2 km/h (2 Bft)
25.09.2014 15:00 14,9 C 69 % 1019,2 hPa 0,0 l/m SW 0,75 h 451 W/m 11,9 km/h (2 Bft)
25.09.2014 16:00 15,0 C 72 % 1019,3 hPa 0,0 l/m SW 0,50 h 250 W/m 11,8 km/h (2 Bft)
25.09.2014 17:00 13,7 C 78 % 1019,8 hPa 0,0 l/m N 0,00 h 38 W/m 1,3 km/h (1 Bft)
25.09.2014 18:00 13,1 C 85 % 1020,5 hPa 0,0 l/m N 0,08 h 48 W/m 0,3 km/h (0 Bft)
25.09.2014 19:00 11,4 C 91 % 1021,0 hPa 0,0 l/m N 0,00 h 6 W/m 0,4 km/h (0 Bft)
25.09.2014 20:00 9,9 C 95 % 1021,5 hPa 0,0 l/m N 0,00 h 0 W/m 0,7 km/h (0 Bft)
25.09.2014 21:00 8,9 C 96 % 1022,0 hPa 0,0 l/m N 0,00 h 0 W/m 0,0 km/h (0 Bft)
25.09.2014 22:00 8,0 C 96 % 1022,6 hPa 0,0 l/m N 0,00 h 0 W/m 0,5 km/h (0 Bft)
25.09.2014 23:00 7,3 C 97 % 1022,8 hPa 0,0 l/m N 0,00 h 0 W/m 0,0 km/h (0 Bft)
26.09.2014 00:00 7,2 C 97 % 1022,9 hPa 0,0 l/m N 0,00 h 0 W/m 0,1 km/h (0 Bft)
26.09.2014 01:00 7,0 C 97 % 1023,3 hPa 0,0 l/m N 0,00 h 0 W/m 0,0 km/h (0 Bft)
26.09.2014 02:00 6,8 C 97 % 1023,6 hPa 0,0 l/m N 0,00 h 0 W/m 0,0 km/h (0 Bft)
26.09.2014 03:00 6,2 C 97 % 1023,6 hPa 0,0 l/m N 0,00 h 0 W/m 0,0 km/h (0 Bft)
26.09.2014 04:00 5,8 C 97 % 1023,5 hPa 0,0 l/m N 0,00 h 0 W/m 0,1 km/h (0 Bft)
26.09.2014 05:00 5,2 C 97 % 1023,5 hPa 0,0 l/m N 0,00 h 0 W/m 0,0 km/h (0 Bft)
26.09.2014 06:00 4,9 C 97 % 1023,4 hPa 0,0 l/m N 0,00 h 0 W/m 0,0 km/h (0 Bft)
26.09.2014 07:00 5,2 C 97 % 1024,1 hPa 0,0 l/m NW 0,00 h 8 W/m 0,5 km/h (0 Bft)
26.09.2014 08:00 6,2 C 98 % 1024,4 hPa 0,2 l/m N 0,00 h 41 W/m 0,4 km/h (0 Bft)
26.09.2014 09:00 7,4 C 98 % 1024,7 hPa 0,0 l/m NW 0,00 h 79 W/m 2,4 km/h (1 Bft)
26.09.2014 10:00 9,3 C 99 % 1025,2 hPa 0,0 l/m S-SW 0,00 h 115 W/m 8,2 km/h (2 Bft)
26.09.2014 11:00 11,2 C 94 % 1025,2 hPa 0,0 l/m S-SW 0,00 h 204 W/m 9,8 km/h (2 Bft)
26.09.2014 12:00 12,8 C 89 % 1025,1 hPa 0,0 l/m S 0,17 h 285 W/m 8,9 km/h (2 Bft)
26.09.2014 13:00 14,8 C 82 % 1024,6 hPa 0,0 l/m S-SW 0,67 h 509 W/m 9,4 km/h (2 Bft)
26.09.2014 14:00 16,4 C 72 % 1024,0 hPa 0,0 l/m W-SW 1,00 h 646 W/m 12,9 km/h (3 Bft)
26.09.2014 15:00 17,5 C 68 % 1023,7 hPa 0,0 l/m S-SW 1,00 h 531 W/m 8,7 km/h (2 Bft)
26.09.2014 16:00 17,9 C 67 % 1023,6 hPa 0,0 l/m SW 1,00 h 403 W/m 9,3 km/h (2 Bft)
26.09.2014 17:00 17,1 C 71 % 1023,6 hPa 0,0 l/m SW 1,00 h 250 W/m 8,9 km/h (2 Bft)
26.09.2014 18:00 15,6 C 79 % 1023,9 hPa 0,0 l/m SW 0,42 h 60 W/m 2,9 km/h (1 Bft)
26.09.2014 19:00 13,3 C 87 % 1024,3 hPa 0,0 l/m N 0,08 h 8 W/m 0,4 km/h (0 Bft)
26.09.2014 20:00 12,1 C 93 % 1024,9 hPa 0,0 l/m N 0,00 h 0 W/m 0,0 km/h (0 Bft)
26.09.2014 21:00 11,5 C 95 % 1025,5 hPa 0,0 l/m N 0,00 h 0 W/m 0,0 km/h (0 Bft)
26.09.2014 22:00 11,1 C 96 % 1025,7 hPa 0,0 l/m N 0,00 h 0 W/m 0,0 km/h (0 Bft)
26.09.2014 23:00 10,7 C 96 % 1025,7 hPa 0,0 l/m N 0,00 h 0 W/m 0,4 km/h (0 Bft)
27.09.2014 00:00 10,6 C 96 % 1025,8 hPa 0,0 l/m N 0,00 h 0 W/m 0,5 km/h (0 Bft)
27.09.2014 01:00 10,4 C 96 % 1025,9 hPa 0,0 l/m N 0,00 h 0 W/m 0,7 km/h (0 Bft)
27.09.2014 02:00 9,8 C 96 % 1026,1 hPa 0,0 l/m N 0,00 h 0 W/m 0,7 km/h (0 Bft)
27.09.2014 03:00 9,0 C 96 % 1025,9 hPa 0,0 l/m N 0,00 h 0 W/m 0,0 km/h (0 Bft)
27.09.2014 04:00 8,4 C 96 % 1025,6 hPa 0,0 l/m N 0,00 h 0 W/m 0,7 km/h (0 Bft)
27.09.2014 05:00 8,1 C 96 % 1025,8 hPa 0,0 l/m SW 0,00 h 0 W/m 1,9 km/h (1 Bft)
27.09.2014 06:00 8,0 C 96 % 1025,8 hPa 0,0 l/m SW 0,00 h 0 W/m 1,7 km/h (1 Bft)
27.09.2014 07:00 7,8 C 97 % 1026,0 hPa 0,0 l/m N 0,08 h 15 W/m 2,0 km/h (1 Bft)
27.09.2014 08:00 8,9 C 98 % 1026,3 hPa 0,0 l/m SW 0,33 h 107 W/m 3,7 km/h (1 Bft)
27.09.2014 09:00 11,3 C 95 % 1026,4 hPa 0,0 l/m NO 1,00 h 273 W/m 7,2 km/h (2 Bft)
27.09.2014 10:00 13,8 C 88 % 1026,5 hPa 0,0 l/m O-NO 1,00 h 416 W/m 11,7 km/h (2 Bft)
27.09.2014 11:00 15,5 C 82 % 1026,4 hPa 0,0 l/m O-NO 1,00 h 547 W/m 13,0 km/h (3 Bft)
27.09.2014 12:00 16,7 C 79 % 1026,3 hPa 0,0 l/m NO 0,92 h 601 W/m 15,0 km/h (3 Bft)
27.09.2014 13:00 17,8 C 75 % 1025,9 hPa 0,0 l/m NO 0,92 h 665 W/m 16,5 km/h (3 Bft)
27.09.2014 14:00 18,2 C 73 % 1025,5 hPa 0,0 l/m O-NO 0,33 h 406 W/m 18,0 km/h (3 Bft)
27.09.2014 15:00 18,6 C 72 % 1025,2 hPa 0,0 l/m O-NO 0,50 h 379 W/m 16,8 km/h (3 Bft)
27.09.2014 16:00 18,8 C 71 % 1025,0 hPa 0,0 l/m O-NO 0,75 h 373 W/m 17,4 km/h (3 Bft)
27.09.2014 17:00 17,8 C 75 % 1025,0 hPa 0,0 l/m O-NO 0,58 h 206 W/m 16,1 km/h (3 Bft)
27.09.2014 18:00 16,7 C 78 % 1025,2 hPa 0,0 l/m O-NO 0,42 h 59 W/m 10,6 km/h (2 Bft)
27.09.2014 19:00 14,9 C 85 % 1025,4 hPa 0,0 l/m O-NO 0,00 h 6 W/m 3,5 km/h (1 Bft)
27.09.2014 20:00 13,6 C 89 % 1025,6 hPa 0,0 l/m N 0,00 h 0 W/m 0,8 km/h (0 Bft)
27.09.2014 21:00 12,6 C 91 % 1025,7 hPa 0,0 l/m O-NO 0,00 h 0 W/m 2,5 km/h (1 Bft)
27.09.2014 22:00 12,0 C 93 % 1025,9 hPa 0,0 l/m O-NO 0,00 h 0 W/m 4,1 km/h (1 Bft)
27.09.2014 23:00 11,5 C 94 % 1025,7 hPa 0,0 l/m O-NO 0,00 h 0 W/m 4,3 km/h (1 Bft)
28.09.2014 00:00 11,1 C 95 % 1025,4 hPa 0,0 l/m O-NO 0,00 h 0 W/m 3,7 km/h (1 Bft)
28.09.2014 01:00 10,6 C 95 % 1025,1 hPa 0,0 l/m N 0,00 h 0 W/m 2,4 km/h (1 Bft)
28.09.2014 02:00 10,0 C 95 % 1025,0 hPa 0,0 l/m N 0,00 h 0 W/m 1,9 km/h (1 Bft)
28.09.2014 03:00 9,6 C 96 % 1024,7 hPa 0,0 l/m O-NO 0,00 h 0 W/m 2,9 km/h (1 Bft)
28.09.2014 04:00 9,8 C 97 % 1024,4 hPa 0,0 l/m O-NO 0,00 h 0 W/m 3,9 km/h (1 Bft)
28.09.2014 05:00 9,7 C 97 % 1024,4 hPa 0,0 l/m O-NO 0,00 h 0 W/m 4,0 km/h (1 Bft)
28.09.2014 06:00 9,7 C 98 % 1024,4 hPa 0,0 l/m N 0,00 h 0 W/m 1,6 km/h (1 Bft)
28.09.2014 07:00 9,7 C 98 % 1024,6 hPa 0,2 l/m N 0,00 h 9 W/m 1,3 km/h (1 Bft)
28.09.2014 08:00 9,8 C 98 % 1024,7 hPa 0,0 l/m O-NO 0,00 h 32 W/m 1,6 km/h (1 Bft)
28.09.2014 09:00 10,5 C 99 % 1024,9 hPa 0,0 l/m N 0,00 h 62 W/m 0,0 km/h (0 Bft)
28.09.2014 10:00 11,5 C 99 % 1025,1 hPa 0,0 l/m O-NO 0,00 h 95 W/m 2,9 km/h (1 Bft)
28.09.2014 11:00 12,5 C 99 % 1024,9 hPa 0,0 l/m SO 0,00 h 137 W/m 4,0 km/h (1 Bft)
28.09.2014 12:00 13,5 C 97 % 1024,6 hPa 0,0 l/m N 0,00 h 174 W/m 1,7 km/h (1 Bft)
28.09.2014 13:00 14,4 C 93 % 1024,3 hPa 0,0 l/m SO 0,00 h 197 W/m 4,4 km/h (1 Bft)
28.09.2014 14:00 16,2 C 89 % 1023,9 hPa 0,0 l/m SO 0,67 h 486 W/m 5,5 km/h (1 Bft)
28.09.2014 15:00 18,0 C 83 % 1023,2 hPa 0,0 l/m O-SO 1,00 h 455 W/m 4,9 km/h (1 Bft)
28.09.2014 16:00 19,0 C 80 % 1023,0 hPa 0,0 l/m O-SO 1,00 h 339 W/m 3,1 km/h (1 Bft)
28.09.2014 17:00 19,3 C 80 % 1022,8 hPa 0,0 l/m O-SO 1,00 h 230 W/m 3,6 km/h (1 Bft)
28.09.2014 18:00 18,2 C 84 % 1022,9 hPa 0,0 l/m O-SO 0,42 h 55 W/m 6,0 km/h (2 Bft)
28.09.2014 19:00 15,9 C 90 % 1023,4 hPa 0,0 l/m N 0,00 h 7 W/m 1,9 km/h (1 Bft)
28.09.2014 20:00 14,7 C 92 % 1024,0 hPa 0,0 l/m N 0,00 h 0 W/m 2,3 km/h (1 Bft)
28.09.2014 21:00 13,6 C 92 % 1024,5 hPa 0,0 l/m O 0,00 h 0 W/m 3,6 km/h (1 Bft)
28.09.2014 22:00 12,7 C 93 % 1024,8 hPa 0,0 l/m N 0,00 h 0 W/m 1,2 km/h (1 Bft)
28.09.2014 23:00 11,8 C 93 % 1024,8 hPa 0,0 l/m N 0,00 h 0 W/m 0,1 km/h (0 Bft)
Min-Datum _ 23.09.14 23.09.14 24.09.14 - - - - 22.09.14
_ Min-Zeit 07:30 16:25 17:50 - - - - 01:00
Minimum _ 1,7 C 53 % 1010,9 hPa - - - - 0,0 km/h (0 Bft)
Max-Datum _ 28.09.14 24.09.14 27.09.14 24.09.14 - 22.09.14 25.09.14 24.09.14
_ Max-Zeit 17:20 02:25 09:45 23:00 - 08:50 12:25 14:35
Maximum _ 19,5 C 100 % 1026,7 hPa 1,0 l/m - 0,08 h 823 W/m 30,6 km/h
SW (5 Bft)
Durchschnitt _ 10,8 C 89 % 1020,5 hPa #6,2 l/m O-NO #37:35 h 246 W/m 5,8 km/h (2 Bft)